Time;durP1;ratioP1;P1;durP2;ratioP2;P2;SDS_P1;SDS_P2;PMS_P1;PMS_P2;Temp;Humidity;BMP_temperature;BMP_pressure;BME280_temperature;BME280_humidity;BME280_pressure;Samples;Min_cycle;Max_cycle;Signal;HPM_P1;HPM_P2
2022/10/10 00:02:07;;;;;;;3.90;3.03;;;17.40;58.70;;;;;;5053274;28;20183;-72
2022/10/10 00:04:33;;;;;;;3.13;2.83;;;17.40;58.70;;;;;;5053251;28;20167;-72
2022/10/10 00:06:59;;;;;;;3.67;2.50;;;17.40;58.70;;;;;;5052285;28;20175;-73
2022/10/10 00:09:24;;;;;;;3.72;2.67;;;17.40;58.70;;;;;;5053215;28;20171;-74
2022/10/10 00:11:50;;;;;;;2.80;2.60;;;17.40;58.70;;;;;;5053086;28;20214;-74
2022/10/10 00:14:15;;;;;;;3.75;2.83;;;17.30;58.70;;;;;;5052021;28;20219;-73
2022/10/10 00:16:41;;;;;;;3.83;3.15;;;17.30;58.70;;;;;;5053352;28;20183;-73
2022/10/10 00:19:06;;;;;;;6.43;2.95;;;17.30;58.70;;;;;;5053035;28;20171;-73
2022/10/10 00:21:32;;;;;;;3.58;3.08;;;17.30;58.70;;;;;;5052558;28;20174;-73
2022/10/10 00:23:59;;;;;;;3.03;2.72;;;17.30;58.70;;;;;;5052981;28;20174;-74
2022/10/10 00:26:25;;;;;;;3.13;2.83;;;17.30;58.70;;;;;;5052360;28;20261;-73
2022/10/10 00:28:50;;;;;;;2.60;2.40;;;17.30;58.70;;;;;;5053365;28;20257;-74
2022/10/10 00:31:25;;;;;;;3.10;2.80;;;17.30;58.70;;;;;;5072794;28;20175;-73
2022/10/10 00:33:50;;;;;;;4.47;2.78;;;17.30;58.70;;;;;;5072362;28;20247;-73
2022/10/10 00:36:16;;;;;;;2.95;2.70;;;17.30;58.70;;;;;;5072674;28;21094;-73
2022/10/10 00:38:42;;;;;;;2.90;2.60;;;17.30;58.70;;;;;;5073139;28;20177;-72
2022/10/10 00:41:07;;;;;;;3.58;3.00;;;17.30;58.70;;;;;;5065398;28;20171;-73
2022/10/10 00:43:33;;;;;;;3.65;2.80;;;17.30;58.70;;;;;;5053008;28;20533;-73
2022/10/10 00:45:59;;;;;;;3.80;2.88;;;17.30;58.70;;;;;;5052661;28;20629;-73
2022/10/10 00:48:29;;;;;;;3.90;2.65;;;17.20;59.30;;;;;;5052142;28;20163;-73
2022/10/10 00:50:56;;;;;;;3.00;2.70;;;17.30;58.70;;;;;;5051821;28;20183;-73
2022/10/10 00:53:25;;;;;;;4.13;2.75;;;17.30;58.70;;;;;;5052666;28;20210;-73
2022/10/10 00:55:50;;;;;;;3.35;2.72;;;17.30;58.70;;;;;;5034645;28;20182;-73
2022/10/10 00:58:16;;;;;;;2.50;2.30;;;17.20;58.60;;;;;;5051332;28;20409;-73
2022/10/10 01:00:42;;;;;;;3.08;2.75;;;17.20;58.60;;;;;;5034861;28;20189;-73
2022/10/10 01:03:07;;;;;;;4.32;2.63;;;17.20;58.70;;;;;;5051596;28;20175;-73
2022/10/10 01:05:33;;;;;;;3.58;2.58;;;17.20;58.60;;;;;;5052185;28;20167;-72
2022/10/10 01:07:59;;;;;;;3.40;2.70;;;17.20;58.70;;;;;;5052248;28;20171;-73
2022/10/10 01:10:24;;;;;;;4.50;2.80;;;17.20;58.60;;;;;;5050513;28;20179;-73
2022/10/10 01:13:14;;;;;;;3.22;2.65;;;17.20;58.70;;;;;;5050893;28;20541;-72
2022/10/10 01:15:47;;;;;;;2.72;2.42;;;17.20;58.70;;;;;;5050737;28;20179;-73
2022/10/10 01:18:16;;;;;;;3.58;2.30;;;17.20;58.60;;;;;;5051192;28;20164;-73
2022/10/10 01:20:49;;;;;;;3.00;2.75;;;17.20;58.60;;;;;;5051126;28;20179;-72
2022/10/10 01:23:42;;;;;;;2.40;2.20;;;17.20;58.70;;;;;;5051514;28;20518;-73
2022/10/10 01:26:39;;;;;;;2.53;2.33;;;17.20;58.70;;;;;;5050953;28;20182;-74
2022/10/10 01:29:17;;;;;;;2.28;2.08;;;17.20;58.70;;;;;;5054043;28;20660;-73
2022/10/10 01:31:44;;;;;;;3.97;2.60;;;17.10;58.60;;;;;;5070694;28;20207;-72
2022/10/10 01:34:21;;;;;;;2.67;2.47;;;17.20;58.70;;;;;;5071042;28;20543;-72
2022/10/10 01:37:07;;;;;;;2.50;2.30;;;17.10;58.60;;;;;;5070312;28;20649;-72
2022/10/10 01:39:41;;;;;;;3.42;2.45;;;17.10;58.60;;;;;;5072402;28;20185;-72
2022/10/10 01:42:13;;;;;;;3.08;2.78;;;17.10;58.70;;;;;;5057366;28;20226;-73
2022/10/10 01:44:45;;;;;;;2.45;2.20;;;17.10;58.70;;;;;;5034621;28;20251;-73
2022/10/10 01:47:11;;;;;;;2.33;2.13;;;17.10;58.60;;;;;;5052229;28;20167;-72
2022/10/10 01:49:37;;;;;;;2.42;2.13;;;17.10;58.70;;;;;;5052132;28;20266;-73
2022/10/10 01:52:21;;;;;;;2.67;2.33;;;17.10;58.70;;;;;;5049886;28;20297;-73
2022/10/10 01:54:59;;;;;;;3.88;2.63;;;17.10;58.60;;;;;;5053831;28;20171;-73
2022/10/10 01:57:59;;;;;;;3.33;2.50;;;17.10;58.70;;;;;;5056062;28;20216;-74
2022/10/10 02:00:25;;;;;;;2.97;2.40;;;17.10;58.60;;;;;;5047270;28;20194;-72
2022/10/10 02:03:15;;;;;;;2.53;2.33;;;17.10;58.70;;;;;;5056002;28;20285;-72
2022/10/10 02:05:44;;;;;;;3.08;2.28;;;17.10;58.70;;;;;;5038895;28;20186;-72
2022/10/10 02:08:30;;;;;;;2.55;2.28;;;17.10;58.70;;;;;;5054304;28;20171;-73
2022/10/10 02:10:59;;;;;;;2.72;2.53;;;17.10;58.70;;;;;;5055478;28;20183;-74
2022/10/10 02:13:31;;;;;;;2.50;2.30;;;17.00;58.60;;;;;;5054703;28;20231;-74
2022/10/10 02:15:56;;;;;;;2.13;1.92;;;17.10;59.30;;;;;;5038404;28;20268;-73
2022/10/10 02:18:24;;;;;;;2.70;2.50;;;17.10;58.70;;;;;;5054238;28;20653;-73
2022/10/10 02:20:49;;;;;;;2.80;2.60;;;17.00;58.60;;;;;;5037268;28;20179;-72
2022/10/10 02:23:16;;;;;;;3.13;2.40;;;17.00;58.60;;;;;;5054091;28;20258;-73
2022/10/10 02:25:41;;;;;;;3.13;2.28;;;17.00;58.60;;;;;;5055515;28;20183;-74
2022/10/10 02:28:14;;;;;;;2.90;2.60;;;17.00;58.60;;;;;;5053012;28;20673;-73
2022/10/10 02:30:42;;;;;;;2.50;2.30;;;17.00;58.60;;;;;;5069146;28;20712;-74
2022/10/10 02:33:08;;;;;;;2.33;2.13;;;17.00;58.60;;;;;;5074417;28;20214;-73
2022/10/10 02:35:36;;;;;;;2.67;2.40;;;17.00;58.90;;;;;;5074132;28;20167;-73
2022/10/10 02:38:02;;;;;;;3.22;2.92;;;17.00;58.70;;;;;;5057581;28;20178;-73
2022/10/10 02:40:29;;;;;;;2.20;2.03;;;17.00;58.60;;;;;;5072124;28;20703;-73
2022/10/10 02:42:55;;;;;;;2.38;2.00;;;17.00;58.70;;;;;;5053817;28;20657;-73
2022/10/10 02:45:22;;;;;;;4.07;2.35;;;17.00;58.60;;;;;;5053470;28;20171;-73
2022/10/10 02:47:47;;;;;;;2.90;2.63;;;16.90;58.60;;;;;;5036894;28;20213;-72
2022/10/10 02:50:13;;;;;;;2.58;2.38;;;17.00;58.70;;;;;;5054545;28;20202;-74
2022/10/10 02:52:39;;;;;;;2.05;1.95;;;16.90;58.60;;;;;;5053609;28;20692;-73
2022/10/10 02:55:05;;;;;;;2.22;2.03;;;16.90;58.60;;;;;;5053968;28;20183;-74
2022/10/10 02:57:30;;;;;;;2.95;2.30;;;16.90;58.60;;;;;;5055124;28;20187;-73
2022/10/10 02:59:56;;;;;;;3.05;2.60;;;17.00;58.70;;;;;;5054995;28;20178;-73
2022/10/10 03:02:21;;;;;;;2.28;2.13;;;16.90;58.60;;;;;;5053913;28;20171;-73
2022/10/10 03:04:47;;;;;;;2.15;1.95;;;16.90;58.60;;;;;;5054536;28;20685;-73
2022/10/10 03:07:12;;;;;;;2.55;2.35;;;16.90;58.70;;;;;;5054265;28;20179;-73
2022/10/10 03:09:38;;;;;;;2.50;2.30;;;16.90;58.60;;;;;;5053946;28;20167;-74
2022/10/10 03:12:03;;;;;;;2.40;2.20;;;16.90;58.60;;;;;;5054340;28;20210;-73
2022/10/10 03:14:29;;;;;;;2.53;2.30;;;16.90;58.60;;;;;;5054055;28;20225;-73
2022/10/10 03:16:54;;;;;;;2.97;2.40;;;16.90;58.70;;;;;;5054085;28;20660;-73
2022/10/10 03:19:20;;;;;;;2.50;2.30;;;16.90;58.60;;;;;;5054270;28;20677;-74
2022/10/10 03:21:45;;;;;;;2.60;2.40;;;16.90;58.60;;;;;;5054286;28;20664;-73
2022/10/10 03:24:11;;;;;;;3.20;2.30;;;16.90;58.70;;;;;;5053459;28;20263;-74
2022/10/10 03:26:36;;;;;;;2.20;2.00;;;16.90;58.70;;;;;;5054243;28;20662;-74
2022/10/10 03:29:02;;;;;;;2.35;2.15;;;16.80;58.60;;;;;;5055536;28;20567;-74
2022/10/10 03:31:28;;;;;;;2.33;2.13;;;16.90;58.60;;;;;;5073254;28;20178;-73
2022/10/10 03:33:53;;;;;;;2.55;2.35;;;16.90;58.70;;;;;;5073876;28;20174;-72
2022/10/10 03:36:20;;;;;;;2.35;2.03;;;16.90;58.70;;;;;;5073329;28;20167;-73
2022/10/10 03:38:45;;;;;;;2.33;1.77;;;16.80;58.60;;;;;;5073936;28;20607;-73
2022/10/10 03:41:11;;;;;;;2.50;2.30;;;16.80;58.70;;;;;;5066918;28;20254;-73
2022/10/10 03:43:36;;;;;;;2.50;2.30;;;16.80;58.70;;;;;;5053111;28;20179;-74
2022/10/10 03:46:02;;;;;;;2.33;2.13;;;16.80;58.60;;;;;;5053429;28;20270;-73
2022/10/10 03:48:27;;;;;;;2.50;2.30;;;16.80;58.60;;;;;;5053774;28;20167;-73
2022/10/10 03:50:53;;;;;;;2.55;2.35;;;16.80;58.60;;;;;;5053261;28;20271;-74
2022/10/10 03:53:18;;;;;;;2.50;2.30;;;16.80;58.60;;;;;;5053540;28;20210;-73
2022/10/10 03:55:44;;;;;;;2.30;2.10;;;16.80;58.70;;;;;;5053926;28;20194;-74
2022/10/10 03:58:09;;;;;;;1.98;1.75;;;16.80;58.70;;;;;;5052543;28;20202;-73
2022/10/10 04:00:35;;;;;;;3.38;2.20;;;16.80;58.70;;;;;;5053379;28;20679;-73
2022/10/10 04:03:05;;;;;;;2.58;2.28;;;16.80;58.70;;;;;;5053325;28;20557;-73
2022/10/10 04:05:37;;;;;;;2.30;2.20;;;16.80;58.70;;;;;;5052876;28;20183;-73
2022/10/10 04:08:03;;;;;;;2.30;2.10;;;16.80;58.70;;;;;;5053294;28;20250;-73
2022/10/10 04:10:28;;;;;;;2.58;2.38;;;16.80;58.70;;;;;;5053327;28;20697;-73
2022/10/10 04:12:54;;;;;;;2.20;2.00;;;16.80;58.70;;;;;;5052238;28;20297;-73
2022/10/10 04:15:19;;;;;;;2.58;2.38;;;16.70;58.70;;;;;;5052735;28;20266;-73
2022/10/10 04:17:45;;;;;;;2.40;2.20;;;16.80;58.70;;;;;;5052715;28;20182;-73
2022/10/10 04:20:10;;;;;;;2.38;2.25;;;16.70;58.70;;;;;;5052185;28;20513;-73
2022/10/10 04:22:37;;;;;;;2.78;2.13;;;16.70;58.60;;;;;;5053220;28;20567;-72
2022/10/10 04:25:03;;;;;;;4.15;2.40;;;16.70;58.70;;;;;;5052745;28;20625;-73
2022/10/10 04:27:28;;;;;;;2.60;2.30;;;16.70;58.70;;;;;;5052419;28;20175;-73
2022/10/10 04:29:54;;;;;;;2.22;2.10;;;16.70;58.70;;;;;;5061931;28;20213;-73
2022/10/10 04:32:19;;;;;;;2.63;2.42;;;16.70;58.70;;;;;;5072687;28;20237;-73
2022/10/10 04:34:45;;;;;;;2.35;2.15;;;16.70;58.70;;;;;;5072533;28;20202;-72
2022/10/10 04:37:10;;;;;;;2.42;2.22;;;16.70;58.70;;;;;;5072594;28;20209;-72
2022/10/10 04:39:36;;;;;;;2.17;2.03;;;16.70;58.70;;;;;;5072599;28;20178;-73
2022/10/10 04:42:01;;;;;;;2.20;2.00;;;16.70;58.70;;;;;;5058872;28;20170;-72
2022/10/10 04:44:27;;;;;;;2.67;2.40;;;16.70;58.70;;;;;;5052870;28;20201;-73
2022/10/10 04:46:52;;;;;;;2.28;2.08;;;16.70;58.70;;;;;;5052224;28;20229;-73
2022/10/10 04:49:18;;;;;;;2.53;2.30;;;16.70;58.70;;;;;;5052622;28;20254;-73
2022/10/10 04:51:43;;;;;;;2.53;2.17;;;16.70;58.70;;;;;;5052529;28;20302;-73
2022/10/10 04:54:09;;;;;;;3.33;2.28;;;16.70;58.70;;;;;;5051537;28;20175;-73
2022/10/10 04:56:34;;;;;;;2.08;1.92;;;16.70;58.70;;;;;;5052665;28;20188;-74
2022/10/10 04:59:00;;;;;;;3.15;2.10;;;16.70;58.70;;;;;;5052035;28;20575;-72
2022/10/10 05:01:25;;;;;;;2.42;2.22;;;16.70;58.70;;;;;;5051916;28;20183;-72
2022/10/10 05:03:51;;;;;;;2.53;2.33;;;16.60;58.70;;;;;;5052657;28;20202;-72
2022/10/10 05:06:16;;;;;;;2.40;2.20;;;16.60;58.60;;;;;;5050850;28;20179;-71
2022/10/10 05:08:42;;;;;;;2.40;2.20;;;16.60;58.60;;;;;;5052081;28;20167;-74
2022/10/10 05:11:07;;;;;;;2.10;2.00;;;16.60;58.60;;;;;;5052229;28;20637;-73
2022/10/10 05:13:33;;;;;;;2.53;2.33;;;16.60;58.70;;;;;;5051870;28;20338;-73
2022/10/10 05:15:59;;;;;;;2.10;2.00;;;16.60;58.60;;;;;;5051293;28;20602;-73
2022/10/10 05:18:25;;;;;;;2.25;2.10;;;16.60;58.70;;;;;;5052535;28;20669;-73
2022/10/10 05:20:50;;;;;;;1.90;1.80;;;16.60;58.70;;;;;;5052226;28;20203;-74
2022/10/10 05:23:16;;;;;;;2.40;2.20;;;16.60;58.70;;;;;;5051447;28;20315;-73
2022/10/10 05:25:48;;;;;;;2.38;2.17;;;16.60;58.70;;;;;;5052269;28;20532;-73
2022/10/10 05:28:14;;;;;;;2.30;2.15;;;16.60;59.30;;;;;;5051023;28;20183;-73
2022/10/10 05:30:39;;;;;;;2.22;2.03;;;16.60;58.70;;;;;;5070720;28;20663;-73
2022/10/10 05:33:05;;;;;;;2.45;2.25;;;16.60;58.70;;;;;;5076126;28;20247;-72
2022/10/10 05:35:30;;;;;;;2.17;1.83;;;16.60;58.70;;;;;;5076255;28;20577;-72
2022/10/10 05:37:56;;;;;;;2.13;1.92;;;16.60;58.70;;;;;;5075550;28;20171;-72
2022/10/10 05:40:22;;;;;;;3.22;2.38;;;16.60;58.70;;;;;;5075994;28;20195;-73
2022/10/10 05:42:48;;;;;;;2.40;2.20;;;16.60;58.70;;;;;;5036051;28;20179;-72
2022/10/10 05:45:13;;;;;;;2.92;2.30;;;16.60;58.70;;;;;;5035252;28;20203;-72
2022/10/10 05:47:39;;;;;;;2.13;2.03;;;16.60;58.70;;;;;;5036378;28;20238;-72
2022/10/10 05:50:05;;;;;;;2.13;2.03;;;16.60;58.70;;;;;;5035363;28;20176;-72
2022/10/10 05:52:30;;;;;;;2.28;2.08;;;16.60;59.30;;;;;;5034770;28;20232;-73
2022/10/10 05:54:56;;;;;;;2.65;2.45;;;16.60;58.70;;;;;;5036027;28;20656;-72
2022/10/10 05:57:21;;;;;;;2.33;2.13;;;16.50;58.70;;;;;;5035726;28;20643;-73
2022/10/10 05:59:47;;;;;;;2.20;2.00;;;16.60;58.70;;;;;;5036120;28;20183;-73
2022/10/10 06:02:12;;;;;;;2.35;2.10;;;16.50;58.60;;;;;;5035827;28;20175;-72
2022/10/10 06:04:38;;;;;;;2.17;2.08;;;16.50;58.60;;;;;;5035146;28;20176;-73
2022/10/10 06:07:03;;;;;;;2.03;1.92;;;16.50;58.70;;;;;;5035648;28;20179;-72
2022/10/10 06:09:29;;;;;;;2.88;2.00;;;16.60;58.70;;;;;;5035828;28;20175;-73
2022/10/10 06:11:54;;;;;;;2.88;2.42;;;16.60;58.60;;;;;;5035041;28;20203;-73
2022/10/10 06:14:20;;;;;;;2.30;2.10;;;16.60;58.60;;;;;;5034986;28;20231;-72
2022/10/10 06:16:45;;;;;;;2.58;2.38;;;16.60;58.60;;;;;;5035951;28;20176;-72
2022/10/10 06:19:11;;;;;;;2.28;2.08;;;16.60;58.60;;;;;;5034849;28;20172;-72
2022/10/10 06:21:36;;;;;;;2.30;2.10;;;16.60;59.20;;;;;;5035878;28;20172;-73
2022/10/10 06:24:02;;;;;;;2.17;1.92;;;16.60;58.60;;;;;;5035474;28;20251;-73
2022/10/10 06:26:28;;;;;;;2.20;2.00;;;16.60;58.60;;;;;;5035034;28;20198;-73
2022/10/10 06:28:53;;;;;;;2.45;2.30;;;16.50;58.60;;;;;;5036456;28;20171;-73
2022/10/10 06:31:19;;;;;;;2.33;2.13;;;16.50;58.60;;;;;;5075239;28;20163;-73
2022/10/10 06:33:45;;;;;;;2.53;2.33;;;16.60;58.60;;;;;;5074648;28;20565;-73
2022/10/10 06:36:11;;;;;;;5.60;2.40;;;16.50;58.60;;;;;;5075223;28;20539;-72
2022/10/10 06:38:40;;;;;;;2.85;2.13;;;16.60;58.50;;;;;;5074843;28;20640;-70
2022/10/10 06:41:06;;;;;;;5.38;2.83;;;16.60;58.40;;;;;;5067832;28;20178;-75
2022/10/10 06:43:32;;;;;;;4.18;2.05;;;16.70;58.20;;;;;;5055025;28;20182;-73
2022/10/10 06:45:58;;;;;;;7.82;2.20;;;16.80;58.30;;;;;;5054934;28;20250;-72
2022/10/10 06:48:23;;;;;;;5.45;2.40;;;17.00;58.30;;;;;;5054535;28;20182;-72
2022/10/10 06:51:00;;;;;;;2.97;2.13;;;17.10;58.10;;;;;;5054987;28;20285;-70
2022/10/10 06:53:26;;;;;;;2.80;2.05;;;17.20;58.00;;;;;;5054294;28;20371;-73
2022/10/10 06:55:53;;;;;;;6.72;2.28;;;17.40;57.80;;;;;;5054914;28;20637;-72
2022/10/10 06:58:18;;;;;;;3.35;2.53;;;17.50;57.70;;;;;;5054455;28;20312;-74
2022/10/10 07:00:54;;;;;;;3.17;2.10;;;17.70;57.50;;;;;;5054226;28;20589;-71
2022/10/10 07:03:20;;;;;;;3.90;2.20;;;17.90;57.30;;;;;;5054270;28;20664;-71
2022/10/10 07:05:53;;;;;;;4.15;2.03;;;18.20;57.00;;;;;;5054834;28;20175;-74
2022/10/10 07:08:19;;;;;;;5.93;2.00;;;18.30;56.80;;;;;;5052642;28;20281;-73
2022/10/10 07:10:44;;;;;;;2.78;1.80;;;18.50;56.60;;;;;;5054858;28;20254;-73
2022/10/10 07:13:10;;;;;;;4.78;2.22;;;18.60;56.50;;;;;;5054255;28;20318;-72
2022/10/10 07:15:36;;;;;;;5.53;2.38;;;18.50;56.40;;;;;;5053843;28;20537;-73
2022/10/10 07:18:01;;;;;;;4.22;2.15;;;18.50;56.50;;;;;;5054279;28;20175;-70
2022/10/10 07:20:27;;;;;;;8.32;2.33;;;18.50;56.50;;;;;;5054671;28;20171;-71
2022/10/10 07:22:52;;;;;;;3.58;2.38;;;18.40;56.70;;;;;;5054007;28;20198;-73
2022/10/10 07:25:18;;;;;;;6.68;1.70;;;18.40;56.80;;;;;;5037388;28;20190;-72
2022/10/10 07:27:44;;;;;;;5.72;2.28;;;18.30;56.90;;;;;;5034280;28;20175;-72
2022/10/10 07:30:10;;;;;;;2.58;2.13;;;18.40;57.00;;;;;;5055462;28;20228;-73
2022/10/10 07:32:35;;;;;;;3.03;1.77;;;18.40;56.80;;;;;;5073973;28;20680;-72
2022/10/10 07:35:01;;;;;;;5.47;1.83;;;18.30;56.90;;;;;;5074033;28;20185;-73
2022/10/10 07:37:26;;;;;;;3.55;2.17;;;18.30;57.20;;;;;;5073487;28;20183;-72
2022/10/10 07:39:52;;;;;;;3.30;2.15;;;18.40;57.30;;;;;;5074135;28;20174;-72
2022/10/10 07:42:18;;;;;;;3.55;2.10;;;18.30;57.20;;;;;;5057882;28;20179;-72
2022/10/10 07:44:44;;;;;;;4.53;2.28;;;18.20;57.20;;;;;;5053266;28;20262;-71
2022/10/10 07:47:09;;;;;;;2.15;1.80;;;18.20;57.40;;;;;;5053844;28;20218;-72
2022/10/10 07:49:35;;;;;;;2.88;1.75;;;18.10;57.50;;;;;;5053292;28;20171;-72
2022/10/10 07:52:00;;;;;;;2.65;1.80;;;18.10;57.60;;;;;;5052840;28;20217;-71
2022/10/10 07:54:26;;;;;;;4.15;2.05;;;18.10;57.60;;;;;;5053913;28;20181;-72
2022/10/10 07:56:51;;;;;;;3.67;1.92;;;18.10;57.80;;;;;;5052800;28;20222;-72
2022/10/10 07:59:17;;;;;;;5.45;2.30;;;18.10;57.80;;;;;;5053621;28;20179;-72
2022/10/10 08:01:42;;;;;;;1.70;1.60;;;18.00;57.70;;;;;;5053598;28;20178;-72
2022/10/10 08:04:08;;;;;;;3.38;2.20;;;18.00;57.90;;;;;;5052530;28;20183;-72
2022/10/10 08:06:33;;;;;;;4.00;2.22;;;18.00;57.90;;;;;;5053676;28;20179;-73
2022/10/10 08:08:59;;;;;;;4.32;1.90;;;18.00;58.00;;;;;;5053157;28;20204;-72
2022/10/10 08:11:25;;;;;;;3.42;2.20;;;18.00;58.00;;;;;;5053055;28;20171;-73
2022/10/10 08:13:50;;;;;;;3.88;1.98;;;18.00;58.00;;;;;;5053113;28;20729;-73
2022/10/10 08:16:19;;;;;;;1.80;1.70;;;18.00;58.00;;;;;;5053253;28;20197;-72
2022/10/10 08:18:44;;;;;;;2.20;1.70;;;18.00;58.10;;;;;;5052712;28;20175;-72
2022/10/10 08:21:11;;;;;;;4.28;2.25;;;18.10;58.10;;;;;;5053260;28;20217;-71
2022/10/10 08:23:36;;;;;;;2.95;1.70;;;18.10;58.80;;;;;;5052966;28;20703;-73
2022/10/10 08:26:03;;;;;;;2.33;2.00;;;18.10;58.00;;;;;;5052403;28;20178;-73
2022/10/10 08:28:29;;;;;;;1.90;1.80;;;18.10;58.10;;;;;;5053322;28;20258;-73
2022/10/10 08:30:55;;;;;;;3.65;2.00;;;18.10;58.10;;;;;;5070584;28;20253;-73
2022/10/10 08:33:20;;;;;;;2.85;2.00;;;18.00;58.00;;;;;;5072083;28;20237;-71
2022/10/10 08:35:46;;;;;;;3.28;1.90;;;18.00;58.20;;;;;;5073300;28;20539;-72
2022/10/10 08:38:12;;;;;;;2.38;1.80;;;17.90;58.30;;;;;;5072863;28;20198;-72
2022/10/10 08:40:46;;;;;;;4.85;2.65;;;17.90;58.40;;;;;;5070280;28;20189;-72
2022/10/10 08:43:45;;;;;;;2.47;1.90;;;17.90;58.50;;;;;;5051668;28;20170;-72
2022/10/10 08:46:17;;;;;;;3.70;1.98;;;17.90;58.50;;;;;;5041928;28;20210;-71
2022/10/10 08:48:43;;;;;;;2.58;2.00;;;17.90;58.50;;;;;;5035358;28;20210;-72
2022/10/10 08:51:11;;;;;;;2.17;1.85;;;17.90;58.50;;;;;;5035034;28;20210;-72
2022/10/10 08:53:42;;;;;;;2.35;2.15;;;17.80;58.50;;;;;;5034667;28;20254;-73
2022/10/10 08:56:12;;;;;;;3.17;2.30;;;17.90;58.50;;;;;;5051536;28;20343;-73
2022/10/10 08:58:39;;;;;;;2.70;1.83;;;17.90;58.50;;;;;;5035677;28;20553;-72
2022/10/10 09:01:23;;;;;;;2.33;2.10;;;17.90;58.40;;;;;;5050477;28;20201;-72
2022/10/10 09:03:52;;;;;;;2.97;1.80;;;18.00;58.40;;;;;;5052846;28;20224;-72
2022/10/10 09:06:52;;;;;;;2.65;1.90;;;17.90;58.40;;;;;;5052450;28;20183;-72
2022/10/10 09:09:29;;;;;;;4.00;1.92;;;18.00;58.40;;;;;;5052311;28;20622;-73
2022/10/10 09:12:20;;;;;;;3.65;1.90;;;18.00;58.40;;;;;;5051627;28;20542;-72
2022/10/10 09:15:03;;;;;;;2.55;2.13;;;18.00;58.50;;;;;;5050560;28;20254;-73
2022/10/10 09:17:35;;;;;;;2.75;2.20;;;18.00;58.50;;;;;;5052793;28;20253;-72
2022/10/10 09:20:25;;;;;;;2.45;1.98;;;18.00;58.50;;;;;;5051077;28;20529;-71
2022/10/10 09:23:09;;;;;;;2.45;1.70;;;18.00;58.50;;;;;;5050709;28;20171;-73
2022/10/10 09:25:40;;;;;;;1.90;1.77;;;18.00;58.40;;;;;;5051639;28;20246;-73
2022/10/10 09:28:17;;;;;;;2.20;2.00;;;18.10;58.40;;;;;;5050548;28;20179;-73
2022/10/10 09:30:50;;;;;;;2.75;1.90;;;18.10;58.40;;;;;;5067097;28;20260;-73
2022/10/10 09:33:26;;;;;;;3.63;2.22;;;18.10;58.40;;;;;;5072189;28;20218;-73
2022/10/10 09:35:52;;;;;;;2.53;1.90;;;18.10;58.40;;;;;;5070375;28;20582;-72
2022/10/10 09:38:26;;;;;;;2.70;2.10;;;18.10;58.50;;;;;;5070756;28;20257;-73
2022/10/10 09:40:58;;;;;;;2.60;1.92;;;18.00;58.50;;;;;;5068160;28;20217;-72
2022/10/10 09:43:30;;;;;;;2.20;1.88;;;18.00;58.60;;;;;;5034755;28;20179;-73
2022/10/10 09:45:56;;;;;;;3.33;2.00;;;18.10;58.60;;;;;;5051262;28;20194;-72
2022/10/10 09:48:27;;;;;;;2.53;1.88;;;18.00;58.60;;;;;;5052108;28;20638;-72
2022/10/10 09:50:52;;;;;;;3.40;2.05;;;18.10;58.60;;;;;;5034705;28;20172;-72
2022/10/10 09:53:18;;;;;;;2.00;1.90;;;18.10;58.60;;;;;;5051911;28;20217;-72
2022/10/10 09:55:44;;;;;;;3.22;2.10;;;18.10;58.60;;;;;;5052397;28;20175;-73
2022/10/10 09:58:23;;;;;;;3.53;2.00;;;18.10;58.60;;;;;;5050305;28;20229;-72
2022/10/10 10:00:49;;;;;;;2.30;2.10;;;18.10;58.60;;;;;;5034993;28;20727;-72
2022/10/10 10:03:18;;;;;;;2.33;2.13;;;18.10;58.50;;;;;;5050002;28;20262;-72
2022/10/10 10:05:57;;;;;;;6.05;1.98;;;18.10;58.60;;;;;;5052340;28;20221;-72
2022/10/10 10:08:25;;;;;;;1.90;1.70;;;18.10;59.20;;;;;;5052100;28;20175;-73
2022/10/10 10:10:51;;;;;;;2.22;1.73;;;18.10;59.20;;;;;;5050436;28;20179;-71
2022/10/10 10:13:23;;;;;;;1.70;1.60;;;18.10;58.60;;;;;;5034018;28;20234;-73
2022/10/10 10:15:51;;;;;;;2.67;2.15;;;18.10;58.60;;;;;;5037730;28;20167;-73
2022/10/10 10:18:18;;;;;;;2.05;1.88;;;18.10;58.70;;;;;;5053207;28;20721;-72
2022/10/10 10:20:45;;;;;;;2.08;1.88;;;18.10;58.70;;;;;;5055839;28;20262;-73
2022/10/10 10:23:31;;;;;;;1.92;1.83;;;18.10;58.70;;;;;;5055359;28;20178;-73
2022/10/10 10:26:01;;;;;;;1.58;1.48;;;18.10;58.70;;;;;;5054611;28;20175;-73
2022/10/10 10:28:27;;;;;;;3.08;1.88;;;18.20;58.70;;;;;;5055674;28;20175;-72
2022/10/10 10:30:54;;;;;;;2.65;1.73;;;18.20;58.60;;;;;;5072277;28;20201;-73
2022/10/10 10:33:45;;;;;;;2.45;2.00;;;18.10;58.60;;;;;;5073322;28;20296;-73
2022/10/10 10:36:16;;;;;;;1.83;1.70;;;18.10;58.70;;;;;;5075966;28;20170;-73
2022/10/10 10:38:54;;;;;;;3.88;2.08;;;18.10;58.80;;;;;;5073353;28;20287;-72
2022/10/10 10:41:38;;;;;;;2.08;1.73;;;18.00;58.90;;;;;;5050604;28;20566;-73
2022/10/10 10:44:25;;;;;;;2.08;1.88;;;18.00;58.90;;;;;;5038105;28;20175;-74
2022/10/10 10:47:15;;;;;;;4.03;1.90;;;18.00;59.10;;;;;;5053256;28;20655;-73
2022/10/10 10:50:14;;;;;;;3.22;1.92;;;18.00;59.20;;;;;;5055035;28;20183;-75
2022/10/10 10:53:03;;;;;;;3.83;2.10;;;18.00;59.30;;;;;;5039625;28;21061;-73
2022/10/10 10:55:46;;;;;;;2.85;1.70;;;18.00;59.50;;;;;;5055197;28;20206;-72
2022/10/10 10:58:40;;;;;;;1.90;1.80;;;18.00;59.50;;;;;;5054358;28;20559;-70
2022/10/10 11:01:13;;;;;;;2.22;2.00;;;18.00;59.60;;;;;;5052820;28;20649;-74
2022/10/10 11:03:59;;;;;;;2.78;1.95;;;18.00;59.50;;;;;;5053700;28;20270;-73
2022/10/10 11:06:47;;;;;;;2.72;1.77;;;18.10;59.50;;;;;;5038231;28;20179;-73
2022/10/10 11:09:19;;;;;;;2.38;2.03;;;18.10;59.40;;;;;;5054182;28;20342;-75
2022/10/10 11:11:52;;;;;;;3.17;1.70;;;18.20;59.30;;;;;;5037156;28;20717;-73
2022/10/10 11:14:39;;;;;;;6.50;2.97;;;18.20;59.20;;;;;;5052147;28;20583;-75
2022/10/10 11:17:25;;;;;;;4.13;1.90;;;18.20;59.20;;;;;;5037774;28;20537;-74
2022/10/10 11:20:02;;;;;;;2.92;1.90;;;18.30;59.20;;;;;;5053316;28;20182;-75
2022/10/10 11:22:38;;;;;;;3.25;1.77;;;18.40;59.10;;;;;;5042623;28;20182;-74
2022/10/10 11:25:18;;;;;;;2.38;2.17;;;18.40;59.10;;;;;;5039065;28;20610;-75
2022/10/10 11:28:08;;;;;;;4.82;1.88;;;18.30;59.10;;;;;;5055558;28;20174;-74
2022/10/10 11:30:35;;;;;;;3.65;1.67;;;18.40;59.30;;;;;;5070069;28;20171;-75
2022/10/10 11:33:14;;;;;;;3.25;1.80;;;18.30;59.20;;;;;;5073986;28;20209;-74
2022/10/10 11:35:46;;;;;;;2.75;1.60;;;18.40;59.20;;;;;;5056522;28;20185;-75
2022/10/10 11:38:31;;;;;;;3.90;1.98;;;18.30;59.20;;;;;;5052782;28;20171;-75
2022/10/10 11:41:11;;;;;;;3.05;1.75;;;18.40;59.30;;;;;;5052536;28;20175;-75
2022/10/10 11:43:59;;;;;;;2.50;1.88;;;18.40;59.20;;;;;;5052368;28;20163;-74
2022/10/10 11:47:00;;;;;;;4.00;1.92;;;18.30;59.30;;;;;;5037614;28;20236;-75
2022/10/10 11:49:51;;;;;;;2.92;1.75;;;18.30;59.40;;;;;;5052275;28;20186;-76
2022/10/10 11:52:38;;;;;;;2.08;1.60;;;18.20;59.40;;;;;;5053673;28;20221;-74
2022/10/10 11:55:17;;;;;;;3.60;1.60;;;18.20;59.50;;;;;;5055592;28;20174;-75
2022/10/10 11:58:07;;;;;;;3.88;1.92;;;18.20;59.60;;;;;;5055865;28;20631;-75
2022/10/10 12:00:34;;;;;;;4.13;1.65;;;18.20;59.70;;;;;;5065111;28;20182;-74
2022/10/10 12:03:00;;;;;;;2.63;1.67;;;18.20;59.70;;;;;;5055232;28;20185;-74
2022/10/10 12:05:27;;;;;;;3.22;1.95;;;18.20;59.60;;;;;;5072454;28;20182;-74
2022/10/10 12:07:55;;;;;;;1.90;1.70;;;18.20;59.60;;;;;;5072456;28;20183;-75
2022/10/10 12:10:39;;;;;;;4.03;2.33;;;18.20;59.60;;;;;;5072148;28;20167;-76
2022/10/10 12:13:26;;;;;;;3.03;1.58;;;18.20;59.70;;;;;;5072012;28;20213;-74
2022/10/10 12:15:53;;;;;;;1.95;1.75;;;18.20;59.60;;;;;;5057230;28;20247;-75
2022/10/10 12:18:30;;;;;;;2.90;1.70;;;18.30;59.70;;;;;;5054801;28;20185;-75
2022/10/10 12:21:09;;;;;;;2.65;1.60;;;18.30;59.60;;;;;;5056085;28;20178;-74
2022/10/10 12:23:35;;;;;;;2.35;1.95;;;18.40;59.50;;;;;;5073459;28;20176;-75
2022/10/10 12:26:01;;;;;;;1.77;1.67;;;18.40;59.50;;;;;;5054272;28;20171;-73
2022/10/10 12:28:26;;;;;;;2.22;1.60;;;18.40;59.40;;;;;;5072986;28;20185;-73
2022/10/10 12:30:54;;;;;;;2.47;1.90;;;18.40;59.50;;;;;;5071691;28;20174;-75
2022/10/10 12:33:43;;;;;;;3.85;1.95;;;18.40;59.40;;;;;;5072941;28;20297;-73
2022/10/10 12:36:18;;;;;;;2.10;1.40;;;18.30;59.50;;;;;;5061791;28;20612;-74
2022/10/10 12:39:09;;;;;;;5.63;1.95;;;18.30;59.70;;;;;;5071959;28;20174;-73
2022/10/10 12:41:41;;;;;;;3.05;1.80;;;18.20;59.80;;;;;;5062863;28;20254;-74
2022/10/10 12:44:34;;;;;;;3.60;1.80;;;18.20;59.90;;;;;;5052741;28;20182;-74
2022/10/10 12:47:15;;;;;;;2.88;1.90;;;18.20;59.90;;;;;;5052054;28;20190;-74
2022/10/10 12:50:02;;;;;;;2.55;2.00;;;18.10;60.00;;;;;;5053098;28;20248;-73
2022/10/10 12:52:53;;;;;;;3.60;2.00;;;18.10;60.10;;;;;;5052020;28;20206;-73
2022/10/10 12:55:28;;;;;;;2.83;2.15;;;18.00;60.20;;;;;;5048331;28;20207;-74
2022/10/10 12:58:01;;;;;;;3.13;1.80;;;18.00;60.30;;;;;;5032947;28;20639;-73
2022/10/10 13:00:41;;;;;;;3.00;1.98;;;18.00;60.30;;;;;;5031190;28;20179;-73
2022/10/10 13:03:21;;;;;;;1.80;1.40;;;18.00;60.40;;;;;;5031706;28;20172;-73
2022/10/10 13:05:47;;;;;;;2.63;1.90;;;17.90;60.40;;;;;;5031639;28;20690;-72